»·PEaware :: BREW33 KOLM-KSEA

BREW33 :: KOLM-KSEA

FLIGHT INFORMATION

Flight Status: Arrived
Operator: Unknown
More flights by this operator :: More flights under this callsign
Pilot: Zayed A. (21851)
Aircraft: BEECH AIRCRAFT T-6A TEXAN
(TEX2)
More flights by this aircraft type
Origin: KOLM Olympia
United States
Destination: KSEA Seattle-Tacoma Intl
United States
More flights between these airports :: More routes between these airports
Route: YELM5 OLM/D015 OLM OLM2
File this flight plan on PilotEdge
Remarks: Local IFR radar delay at KOLM / D0+15
Altitude:
(Current/Filed)
7,000ft
Speed:
(Current/Filed)
210kts
Departed: 11-Feb-21 12:16 PM
Arrived: 11-Feb-21 12:49 PM
Distance/Time
Traveled:
37nm/0:32
Distance/Time
To Go:
Arrived

Flight Plot

Page will automatically refresh every two minutes.

Flight plan parsing failed; only flown route is shown


Map Options




Map Legend


Flown Route
Filed Route
Departure Airport
Arrival Airport
Navaid (VOR, NDB)
Fix

Horizontal Profiles

Position Reports

Time Latitude Longitude Heading Altitude Ground
Speed
11-Feb-21 11:55 46.977581 -122.899626 140 193ft 0kts
11-Feb-21 11:56 46.975575 -122.898651 289 197ft 0kts
11-Feb-21 11:57 46.975575 -122.898651 289 197ft 0kts
11-Feb-21 11:58 46.975575 -122.898651 289 197ft 0kts
11-Feb-21 11:59 46.975575 -122.898651 289 197ft 0kts
11-Feb-21 12:00 46.975575 -122.898651 289 197ft 0kts
11-Feb-21 12:01 46.975575 -122.898651 289 197ft 0kts
11-Feb-21 12:02 46.975575 -122.898651 289 197ft 0kts
11-Feb-21 12:03 46.975575 -122.898651 289 197ft 0kts
11-Feb-21 12:04 46.975575 -122.898651 289 197ft 0kts
11-Feb-21 12:05 46.975575 -122.898651 289 197ft 0kts
11-Feb-21 12:06 46.975758 -122.898704 140 196ft 0kts
11-Feb-21 12:07 46.975758 -122.898704 140 196ft 0kts
11-Feb-21 12:08 46.975758 -122.898704 140 196ft 0kts
11-Feb-21 12:09 46.975758 -122.898704 140 196ft 0kts
11-Feb-21 12:10 46.975758 -122.898704 140 196ft 0kts
11-Feb-21 12:11 46.975758 -122.898704 140 196ft 0kts
11-Feb-21 12:12 46.976119 -122.900861 281 196ft 4kts
11-Feb-21 12:13 46.976134 -122.900984 278 196ft 0kts
11-Feb-21 12:14 46.975303 -122.902703 192 197ft 23kts
11-Feb-21 12:15 46.949519 -122.888719 81 2504ft 166kts
11-Feb-21 12:16 46.976402 -122.812513 59 2993ft 231kts
11-Feb-21 12:17 47.011971 -122.736329 50 2863ft 217kts
11-Feb-21 12:18 47.048392 -122.669317 50 2978ft 208kts
11-Feb-21 12:19 47.088783 -122.615796 355 3008ft 194kts
11-Feb-21 12:20 47.143596 -122.626556 311 3138ft 204kts
11-Feb-21 12:21 47.162465 -122.699891 285 2921ft 176kts
11-Feb-21 12:22 47.176545 -122.762123 271 2969ft 151kts
11-Feb-21 12:23 47.168785 -122.812445 208 2935ft 140kts
11-Feb-21 12:24 47.132162 -122.835241 214 2923ft 142kts
11-Feb-21 12:25 47.097753 -122.859337 202 2855ft 114kts
11-Feb-21 12:26 47.069312 -122.872514 199 2784ft 104kts
11-Feb-21 12:27 47.040760 -122.883170 193 2411ft 109kts
11-Feb-21 12:28 47.011767 -122.891815 199 1538ft 105kts
11-Feb-21 12:29 46.983321 -122.900576 190 505ft 97kts
11-Feb-21 12:30 46.953060 -122.907217 187 1695ft 153kts
11-Feb-21 12:31 46.905791 -122.917727 194 4276ft 212kts
11-Feb-21 12:32 46.898998 -122.978704 341 4118ft 246kts
11-Feb-21 12:33 46.953542 -122.926155 46 4149ft 260kts
11-Feb-21 12:35 47.006590 -122.854760 42 4862ft 259kts
11-Feb-21 12:36 47.058318 -122.786439 43 4835ft 249kts
11-Feb-21 12:37 47.092663 -122.698928 82 4903ft 256kts
11-Feb-21 12:38 47.094369 -122.598254 93 4787ft 244kts
11-Feb-21 12:39 47.094828 -122.501863 88 4892ft 237kts
11-Feb-21 12:40 47.096077 -122.405554 85 4857ft 236kts
11-Feb-21 12:41 47.131105 -122.336618 27 4524ft 216kts
11-Feb-21 12:42 47.185600 -122.314684 358 4438ft 205kts
11-Feb-21 12:43 47.242508 -122.313515 351 4152ft 197kts
11-Feb-21 12:44 47.295429 -122.318297 355 3377ft 174kts
11-Feb-21 12:45 47.334002 -122.316459 355 2526ft 125kts
11-Feb-21 12:46 47.369947 -122.317514 358 1826ft 134kts
11-Feb-21 12:47 47.406280 -122.318168 1 1086ft 129kts
11-Feb-21 12:48 47.440918 -122.318051 359 370ft 104kts
11-Feb-21 12:49 47.458082 -122.317296 18 313ft 35kts
11-Feb-21 12:50 47.456582 -122.313463 180 409ft 39kts
11-Feb-21 12:51 47.446818 -122.313558 180 388ft 31kts
11-Feb-21 12:51 47.440730 -122.313614 182 365ft 0kts
11-Feb-21 12:53 47.439328 -122.313911 215 361ft 17kts

Navigation Log

Ident Type
Flight plan parsing failed, navigation log unavailable